Flight Briefing for CPX671

Departure Arrival
Tallahassee International Airport (KTLH)
Click to view FAA NOTAMS
Miami International Airport (KMIA)
Click to view FAA NOTAMS
Departure Time Arrival Time
N/A N/A
Aircraft Distance
SF340AF 350nm
Departure METAR Arrival METAR
KTLH 221153Z 00000KT 10SM CLR 03/01 A3008 RMK AO2 SLP185 T00330011 10078 20028 53018 KMIA 221153Z 32006KT 10SM CLR 16/12 A3007 RMK AO2 SLP184 T01560117 10172 20150 53016
Suggested Route
HEVVN NICKI JUULI SSCOT5


View recent IFR Routes data
Notes



Charts and Procedures

Charts for KTLH
No chart available
Charts for KMIA
No chart available

Windy.com Weather Map